Time;durP1;ratioP1;P1;durP2;ratioP2;P2;SDS_P1;SDS_P2;PMS_P1;PMS_P2;Temp;Humidity;BMP_temperature;BMP_pressure;BME280_temperature;BME280_humidity;BME280_pressure;Samples;Min_cycle;Max_cycle;Signal;HPM_P1;HPM_P2
2022/10/22 00:00:34;;;;;;;15.77;8.02;;;12.50;99.90;;;;;;5107535;28;20031;-64
2022/10/22 00:03:00;;;;;;;9.60;7.00;;;12.50;99.90;;;;;;5102976;28;20035;-64
2022/10/22 00:05:26;;;;;;;9.93;6.88;;;12.40;99.90;;;;;;5105427;28;20130;-63
2022/10/22 00:07:52;;;;;;;12.70;7.72;;;12.40;99.90;;;;;;5108162;28;20072;-64
2022/10/22 00:10:17;;;;;;;10.80;6.72;;;12.30;99.90;;;;;;5105882;28;20491;-64
2022/10/22 00:12:44;;;;;;;12.15;6.82;;;12.30;99.90;;;;;;5111523;28;20035;-64
2022/10/22 00:15:10;;;;;;;11.95;6.95;;;12.40;99.90;;;;;;5116738;27;20047;-64
2022/10/22 00:17:36;;;;;;;9.88;6.13;;;12.30;99.90;;;;;;5126220;27;20121;-63
2022/10/22 00:20:03;;;;;;;11.15;6.38;;;12.20;99.90;;;;;;5124323;27;20055;-64
2022/10/22 00:22:28;;;;;;;7.95;6.38;;;12.20;99.90;;;;;;5126206;27;20039;-64
2022/10/22 00:24:54;;;;;;;12.00;6.15;;;12.20;99.90;;;;;;5123086;27;20042;-63
2022/10/22 00:27:20;;;;;;;9.27;6.95;;;12.20;99.90;;;;;;5124120;27;20043;-63
2022/10/22 00:29:45;;;;;;;9.20;6.93;;;12.10;99.90;;;;;;5123658;27;20031;-63
2022/10/22 00:32:11;;;;;;;10.52;7.13;;;12.10;99.90;;;;;;5124598;27;20093;-63
2022/10/22 00:34:36;;;;;;;14.82;8.73;;;12.10;99.90;;;;;;5119778;27;20046;-64
2022/10/22 00:37:02;;;;;;;14.82;8.00;;;12.10;99.90;;;;;;5127207;27;20035;-64
2022/10/22 00:39:28;;;;;;;13.38;8.13;;;12.10;99.90;;;;;;5122654;27;20023;-64
2022/10/22 00:41:55;;;;;;;9.80;7.32;;;12.10;99.90;;;;;;5122410;27;20030;-64
2022/10/22 00:44:58;;;;;;;12.98;9.00;;;12.10;99.90;;;;;;5117826;27;20165;-63
2022/10/22 00:47:26;;;;;;;12.65;8.48;;;12.10;99.90;;;;;;5120940;27;20184;-63
2022/10/22 00:49:54;;;;;;;11.35;8.23;;;12.00;99.90;;;;;;5123398;27;20039;-63
2022/10/22 00:52:21;;;;;;;12.27;8.27;;;12.10;99.90;;;;;;5118554;27;20131;-64
2022/10/22 00:54:47;;;;;;;12.13;7.88;;;12.00;99.90;;;;;;5126540;27;20042;-64
2022/10/22 00:57:14;;;;;;;10.88;8.07;;;12.00;99.90;;;;;;5123565;27;20086;-64
2022/10/22 00:59:40;;;;;;;12.60;8.57;;;12.10;99.90;;;;;;5119542;27;20244;-64
2022/10/22 01:02:06;;;;;;;13.57;9.43;;;12.10;99.90;;;;;;5100718;27;20184;-66
2022/10/22 01:04:31;;;;;;;14.82;8.90;;;12.10;99.90;;;;;;5121064;27;20070;-66
2022/10/22 01:06:57;;;;;;;11.45;8.40;;;12.10;99.90;;;;;;5126239;27;20065;-66
2022/10/22 01:09:50;;;;;;;14.13;9.48;;;12.10;99.90;;;;;;5118122;27;20096;-66
2022/10/22 01:12:35;;;;;;;13.68;8.27;;;12.10;99.90;;;;;;5125628;27;20061;-66
2022/10/22 01:15:15;;;;;;;14.00;7.90;;;12.00;99.90;;;;;;5120477;27;20103;-66
2022/10/22 01:18:02;;;;;;;16.52;8.75;;;12.00;99.90;;;;;;5125428;27;20043;-66
2022/10/22 01:20:31;;;;;;;15.38;8.95;;;12.00;99.90;;;;;;5123609;27;20112;-66
2022/10/22 01:23:01;;;;;;;13.50;8.57;;;11.90;99.90;;;;;;5118140;27;20039;-66
2022/10/22 01:26:04;;;;;;;14.48;8.77;;;11.90;99.90;;;;;;5125636;27;20514;-66
2022/10/22 01:28:47;;;;;;;15.38;8.75;;;11.90;99.90;;;;;;5092418;27;20047;-66
2022/10/22 01:31:15;;;;;;;14.20;8.20;;;11.90;99.90;;;;;;5128300;27;20039;-66
2022/10/22 01:33:45;;;;;;;14.70;8.70;;;11.90;99.90;;;;;;5129421;27;20043;-66
2022/10/22 01:36:13;;;;;;;14.25;9.32;;;11.80;99.90;;;;;;5122393;27;20087;-66
2022/10/22 01:38:40;;;;;;;18.30;9.35;;;11.80;99.90;;;;;;5124026;27;20410;-66
2022/10/22 01:41:06;;;;;;;20.02;10.23;;;11.80;99.90;;;;;;5118649;27;20050;-66
2022/10/22 01:43:32;;;;;;;12.75;9.55;;;11.80;99.90;;;;;;5125329;27;20488;-66
2022/10/22 01:46:01;;;;;;;17.42;10.43;;;11.80;99.90;;;;;;5124828;27;20047;-66
2022/10/22 01:48:54;;;;;;;17.98;11.05;;;11.80;99.90;;;;;;5125287;27;20162;-66
2022/10/22 01:51:37;;;;;;;20.65;12.60;;;11.90;99.90;;;;;;5119718;27;20039;-66
2022/10/22 01:54:24;;;;;;;16.42;11.10;;;12.00;99.90;;;;;;5126241;27;20126;-66
2022/10/22 01:57:28;;;;;;;14.35;10.77;;;12.00;99.90;;;;;;5125388;27;20055;-65
2022/10/22 02:00:06;;;;;;;20.95;12.57;;;12.10;99.90;;;;;;5129573;27;20038;-66
2022/10/22 02:02:46;;;;;;;26.70;14.00;;;12.10;99.90;;;;;;5120742;27;20043;-65
2022/10/22 02:05:28;;;;;;;15.43;11.90;;;12.10;99.90;;;;;;5124186;27;20031;-66
2022/10/22 02:08:39;;;;;;;23.92;13.43;;;12.20;99.90;;;;;;5124969;27;20130;-66
2022/10/22 02:11:05;;;;;;;24.90;13.57;;;12.20;99.90;;;;;;5061516;28;20121;-66
2022/10/22 02:13:39;;;;;;;17.48;11.50;;;12.20;99.90;;;;;;5103306;27;20055;-66
2022/10/22 02:16:06;;;;;;;;;;;12.10;99.90;;;;;;5124205;27;20462;-66
2022/10/22 02:18:37;;;;;;;19.95;11.98;;;12.10;99.90;;;;;;5129157;27;19916;-66
2022/10/22 02:21:04;;;;;;;12.40;9.88;;;12.10;99.90;;;;;;5117989;27;20027;-66
2022/10/22 02:23:30;;;;;;;23.40;11.95;;;12.10;99.90;;;;;;5118687;27;20039;-65
2022/10/22 02:26:04;;;;;;;19.13;11.73;;;12.10;99.90;;;;;;5128409;27;20058;-66
2022/10/22 02:28:57;;;;;;;19.67;11.45;;;12.00;99.90;;;;;;5121857;27;20447;-66
2022/10/22 02:31:26;;;;;;;21.73;11.85;;;12.10;99.90;;;;;;5116144;27;20157;-66
2022/10/22 02:33:56;;;;;;;25.17;12.57;;;12.10;99.90;;;;;;5120014;27;20409;-66
2022/10/22 02:36:23;;;;;;;17.42;10.60;;;12.00;99.90;;;;;;5120103;27;20023;-67
2022/10/22 02:38:51;;;;;;;19.35;11.50;;;12.00;99.90;;;;;;5123112;27;20091;-67
2022/10/22 02:41:18;;;;;;;24.73;13.30;;;12.00;99.90;;;;;;5121664;27;20039;-67
2022/10/22 02:43:49;;;;;;;23.08;13.65;;;12.10;99.90;;;;;;5118737;27;20181;-67
2022/10/22 02:46:15;;;;;;;21.35;13.65;;;12.00;99.90;;;;;;5131901;27;20036;-66
2022/10/22 02:48:40;;;;;;;18.85;11.77;;;12.00;99.90;;;;;;5123916;27;20039;-66
2022/10/22 02:51:06;;;;;;;20.92;13.15;;;12.00;99.90;;;;;;5118412;27;20032;-66
2022/10/22 02:53:32;;;;;;;16.45;11.35;;;12.00;99.90;;;;;;5118106;27;20079;-66
2022/10/22 02:55:58;;;;;;;20.80;12.35;;;11.90;99.90;;;;;;5116010;27;20414;-66
2022/10/22 02:58:24;;;;;;;18.23;11.50;;;12.00;99.90;;;;;;5119661;27;20092;-66
2022/10/22 03:00:49;;;;;;;19.08;11.48;;;11.90;99.90;;;;;;5122753;27;20031;-66
2022/10/22 03:03:15;;;;;;;19.67;12.40;;;12.00;99.90;;;;;;5120693;27;20043;-66
2022/10/22 03:05:41;;;;;;;12.32;10.95;;;11.90;99.90;;;;;;5118941;27;20138;-66
2022/10/22 03:08:06;;;;;;;21.88;11.65;;;11.90;99.90;;;;;;5118029;27;20039;-66
2022/10/22 03:10:32;;;;;;;17.17;10.57;;;11.90;99.90;;;;;;5119875;27;20138;-66
2022/10/22 03:12:58;;;;;;;17.90;11.43;;;11.80;99.90;;;;;;5119641;27;20080;-66
2022/10/22 03:15:23;;;;;;;25.33;13.20;;;11.90;99.90;;;;;;5124543;28;20054;-67
2022/10/22 03:17:49;;;;;;;18.92;11.95;;;11.90;99.90;;;;;;5123404;28;20051;-66
2022/10/22 03:20:15;;;;;;;17.63;12.82;;;11.90;99.90;;;;;;5118632;28;20077;-66
2022/10/22 03:22:42;;;;;;;26.13;14.88;;;11.80;99.90;;;;;;5118493;28;20398;-66
2022/10/22 03:25:12;;;;;;;24.42;14.27;;;11.90;99.90;;;;;;5124237;28;20051;-66
2022/10/22 03:27:39;;;;;;;21.15;12.65;;;11.90;99.90;;;;;;5121303;28;20051;-66
2022/10/22 03:30:06;;;;;;;20.02;11.60;;;11.90;99.90;;;;;;5117325;28;20058;-66
2022/10/22 03:32:31;;;;;;;20.10;12.60;;;11.90;99.90;;;;;;5118266;28;20040;-66
2022/10/22 03:34:57;;;;;;;21.83;13.88;;;11.90;99.90;;;;;;5125577;28;20046;-66
2022/10/22 03:37:24;;;;;;;17.27;12.40;;;11.80;99.90;;;;;;5123946;28;20059;-66
2022/10/22 03:39:50;;;;;;;23.02;13.48;;;11.80;99.90;;;;;;5117839;28;20055;-66
2022/10/22 03:42:16;;;;;;;30.15;14.68;;;11.80;99.90;;;;;;5115741;28;20054;-66
2022/10/22 03:44:42;;;;;;;24.02;13.88;;;11.80;99.90;;;;;;5124967;28;20035;-66
2022/10/22 03:47:08;;;;;;;21.33;13.60;;;11.70;99.90;;;;;;5116287;28;20063;-66
2022/10/22 03:49:34;;;;;;;19.35;13.07;;;11.70;99.90;;;;;;5117040;28;20383;-66
2022/10/22 03:52:17;;;;;;;19.98;13.65;;;11.70;99.90;;;;;;5125287;28;20043;-66
2022/10/22 03:54:43;;;;;;;24.08;14.75;;;11.70;99.90;;;;;;5113078;28;20081;-66
2022/10/22 03:57:09;;;;;;;23.08;14.55;;;11.70;99.90;;;;;;5115833;28;20079;-66
2022/10/22 03:59:37;;;;;;;22.77;13.57;;;11.70;99.90;;;;;;5133936;27;20100;-66
2022/10/22 04:02:03;;;;;;;24.20;14.10;;;11.70;99.90;;;;;;5118609;27;20035;-66
2022/10/22 04:04:29;;;;;;;23.08;13.55;;;11.60;99.90;;;;;;5131007;27;20035;-66
2022/10/22 04:06:55;;;;;;;20.17;13.65;;;11.60;99.90;;;;;;5120701;27;20091;-66
2022/10/22 04:09:21;;;;;;;23.90;14.07;;;11.60;99.90;;;;;;5120016;27;20028;-66
2022/10/22 04:11:46;;;;;;;21.75;14.90;;;11.60;99.90;;;;;;5129692;27;20035;-66
2022/10/22 04:14:12;;;;;;;23.35;13.98;;;11.50;99.90;;;;;;5130496;27;20043;-66
2022/10/22 04:16:39;;;;;;;24.65;15.38;;;11.60;99.90;;;;;;5119979;27;20075;-66
2022/10/22 04:19:05;;;;;;;28.75;15.73;;;11.50;99.90;;;;;;5124659;27;20054;-66
2022/10/22 04:21:31;;;;;;;29.70;16.77;;;11.60;99.90;;;;;;5130530;27;20054;-66
2022/10/22 04:23:57;;;;;;;25.58;15.02;;;11.60;99.90;;;;;;5131542;27;20254;-66
2022/10/22 04:26:23;;;;;;;30.80;16.25;;;11.50;99.90;;;;;;5125115;27;20039;-66
2022/10/22 04:28:51;;;;;;;20.70;14.43;;;11.60;99.90;;;;;;5122465;27;20055;-66
2022/10/22 04:31:20;;;;;;;27.52;15.75;;;11.60;99.90;;;;;;5128806;27;20043;-66
2022/10/22 04:33:46;;;;;;;22.52;15.65;;;11.60;99.90;;;;;;5122367;27;20531;-66
2022/10/22 04:36:14;;;;;;;32.42;18.15;;;11.60;99.90;;;;;;5122767;27;20079;-66
2022/10/22 04:38:40;;;;;;;22.92;15.73;;;11.60;99.90;;;;;;5121969;27;20171;-66
2022/10/22 04:41:13;;;;;;;24.75;16.33;;;11.60;99.90;;;;;;5117606;27;20036;-66
2022/10/22 04:43:40;;;;;;;24.73;15.38;;;11.60;99.90;;;;;;5117067;27;20036;-66
2022/10/22 04:46:08;;;;;;;29.52;16.58;;;11.60;99.90;;;;;;5123078;27;20049;-66
2022/10/22 04:48:37;;;;;;;22.50;14.80;;;11.60;99.90;;;;;;5120495;27;20119;-66
2022/10/22 04:51:05;;;;;;;21.33;14.75;;;11.60;99.90;;;;;;5116741;27;20047;-66
2022/10/22 04:53:32;;;;;;;22.88;16.23;;;11.60;99.90;;;;;;5124763;27;20031;-66
2022/10/22 04:56:19;;;;;;;38.80;18.45;;;11.70;99.90;;;;;;5125114;27;20047;-66
2022/10/22 04:58:55;;;;;;;31.65;18.30;;;11.70;99.90;;;;;;5126077;27;20045;-65
2022/10/22 05:01:23;;;;;;;30.10;17.17;;;11.70;99.90;;;;;;5118790;27;20040;-66
2022/10/22 05:03:50;;;;;;;36.70;19.08;;;11.80;99.90;;;;;;5119848;27;20386;-65
2022/10/22 05:06:19;;;;;;;26.92;15.98;;;11.80;99.90;;;;;;5119478;27;20394;-65
2022/10/22 05:08:45;;;;;;;22.13;14.70;;;11.80;99.90;;;;;;5118102;27;20039;-66
2022/10/22 05:11:21;;;;;;;31.10;17.73;;;11.80;99.90;;;;;;5126047;27;20602;-65
2022/10/22 05:13:47;;;;;;;25.85;15.80;;;11.80;99.90;;;;;;5118992;27;20074;-65
2022/10/22 05:16:13;;;;;;;30.15;17.98;;;11.80;99.90;;;;;;5120227;27;20082;-65
2022/10/22 05:18:41;;;;;;;21.50;15.43;;;11.70;99.90;;;;;;5120321;27;20054;-66
2022/10/22 05:21:12;;;;;;;27.60;15.85;;;11.80;99.90;;;;;;5122086;27;20031;-66
2022/10/22 05:23:38;;;;;;;32.33;16.80;;;11.80;99.90;;;;;;5123259;27;20055;-66
2022/10/22 05:26:06;;;;;;;26.95;15.77;;;11.80;99.90;;;;;;5121478;27;20027;-65
2022/10/22 05:28:32;;;;;;;24.05;15.77;;;11.80;99.90;;;;;;5114494;27;20051;-65
2022/10/22 05:30:59;;;;;;;27.48;17.42;;;11.80;99.90;;;;;;5123837;27;20451;-65
2022/10/22 05:33:26;;;;;;;22.05;13.93;;;11.90;99.90;;;;;;5121570;27;20039;-65
2022/10/22 05:35:52;;;;;;;24.60;16.23;;;11.90;99.90;;;;;;5123467;27;20047;-66
2022/10/22 05:38:18;;;;;;;20.40;14.93;;;11.90;99.90;;;;;;5116713;27;20031;-66
2022/10/22 05:40:44;;;;;;;27.70;15.65;;;12.00;99.90;;;;;;5121753;27;20045;-65
2022/10/22 05:43:10;;;;;;;23.20;15.43;;;12.00;99.90;;;;;;5119993;27;20542;-65
2022/10/22 05:45:39;;;;;;;23.52;15.40;;;12.00;99.90;;;;;;5124575;27;20135;-65
2022/10/22 05:48:06;;;;;;;21.85;14.52;;;12.10;99.90;;;;;;5123833;27;20027;-65
2022/10/22 05:50:36;;;;;;;21.50;15.30;;;12.00;99.90;;;;;;5121501;27;20459;-65
2022/10/22 05:53:02;;;;;;;21.65;13.68;;;12.10;99.90;;;;;;5119825;27;20031;-66
2022/10/22 05:55:28;;;;;;;20.65;14.57;;;12.10;99.90;;;;;;5124075;27;20147;-65
2022/10/22 05:57:53;;;;;;;19.73;13.18;;;12.10;99.90;;;;;;5119193;27;20121;-65
2022/10/22 06:00:19;;;;;;;25.00;13.85;;;12.10;99.90;;;;;;5117872;27;20036;-65
2022/10/22 06:02:49;;;;;;;18.20;13.07;;;12.10;99.90;;;;;;5120944;27;20096;-66
2022/10/22 06:05:14;;;;;;;15.73;12.32;;;12.20;99.90;;;;;;5118303;27;20071;-66
2022/10/22 06:07:40;;;;;;;19.33;13.05;;;12.20;99.90;;;;;;5118574;27;20097;-65
2022/10/22 06:10:19;;;;;;;24.02;12.98;;;12.20;99.90;;;;;;5119489;27;20373;-65
2022/10/22 06:12:48;;;;;;;21.00;13.50;;;12.20;99.90;;;;;;5123418;27;20040;-65
2022/10/22 06:15:16;;;;;;;19.77;13.07;;;12.20;99.90;;;;;;5125517;27;20043;-65
2022/10/22 06:17:46;;;;;;;20.70;13.25;;;12.20;99.90;;;;;;5121795;27;20062;-65
2022/10/22 06:20:12;;;;;;;19.30;12.73;;;12.20;99.90;;;;;;5118832;27;20039;-66
2022/10/22 06:22:38;;;;;;;22.92;13.45;;;12.20;99.90;;;;;;5117621;27;20220;-65
2022/10/22 06:25:07;;;;;;;19.60;12.57;;;12.20;99.90;;;;;;5119672;27;20062;-65
2022/10/22 06:27:33;;;;;;;20.25;12.15;;;12.20;99.90;;;;;;5116412;27;20109;-65
2022/10/22 06:29:58;;;;;;;22.92;12.63;;;12.20;99.90;;;;;;5119295;27;20046;-66
2022/10/22 06:32:24;;;;;;;23.73;12.70;;;12.20;99.90;;;;;;5119963;27;20065;-65
2022/10/22 06:34:50;;;;;;;18.95;11.85;;;12.30;99.90;;;;;;5117875;27;20046;-65
2022/10/22 06:37:16;;;;;;;20.60;11.70;;;12.30;99.90;;;;;;5118527;27;20133;-66
2022/10/22 06:39:42;;;;;;;20.30;11.93;;;12.30;99.90;;;;;;5123290;27;20420;-66
2022/10/22 06:42:08;;;;;;;19.23;11.13;;;12.40;99.90;;;;;;5121595;27;20125;-66
2022/10/22 06:44:34;;;;;;;19.48;11.63;;;12.40;99.90;;;;;;5121083;27;20125;-65
2022/10/22 06:46:59;;;;;;;21.05;10.50;;;12.40;99.90;;;;;;5128357;27;20043;-66
2022/10/22 06:49:25;;;;;;;22.98;10.98;;;12.40;99.90;;;;;;5117964;27;20035;-65
2022/10/22 06:51:52;;;;;;;18.33;10.80;;;12.50;99.90;;;;;;5121288;27;20085;-65
2022/10/22 06:54:18;;;;;;;17.58;10.32;;;12.40;99.90;;;;;;5119533;27;20050;-65
2022/10/22 06:56:43;;;;;;;21.73;11.00;;;12.50;99.90;;;;;;5117421;27;20039;-65
2022/10/22 06:59:09;;;;;;;14.80;10.13;;;12.50;99.90;;;;;;5103516;27;20061;-65
2022/10/22 07:01:35;;;;;;;21.83;11.20;;;12.60;99.90;;;;;;5119349;27;20035;-65
2022/10/22 07:04:02;;;;;;;13.98;9.13;;;12.60;99.90;;;;;;5113488;27;20043;-65
2022/10/22 07:06:28;;;;;;;20.25;10.57;;;12.70;99.90;;;;;;5118884;28;20057;-64
2022/10/22 07:08:55;;;;;;;18.63;9.80;;;12.70;99.90;;;;;;5119371;27;20068;-64
2022/10/22 07:11:31;;;;;;;16.33;9.98;;;12.80;99.90;;;;;;5125501;27;20044;-64
2022/10/22 07:13:58;;;;;;;19.63;9.70;;;12.80;99.90;;;;;;5118029;27;20122;-64
2022/10/22 07:16:24;;;;;;;19.92;9.88;;;12.90;99.90;;;;;;5116702;28;20050;-63
2022/10/22 07:18:50;;;;;;;16.40;9.90;;;13.00;99.90;;;;;;5118299;28;20039;-64
2022/10/22 07:21:17;;;;;;;14.80;8.80;;;13.10;99.90;;;;;;5124713;28;20613;-64
2022/10/22 07:23:44;;;;;;;18.65;8.88;;;13.20;99.90;;;;;;5123793;28;20170;-64
2022/10/22 07:26:12;;;;;;;16.30;8.50;;;13.30;99.90;;;;;;5121992;28;20042;-64
2022/10/22 07:28:39;;;;;;;16.98;8.57;;;13.40;99.90;;;;;;5121738;28;20050;-64
2022/10/22 07:31:07;;;;;;;15.05;7.85;;;13.70;99.90;;;;;;5118841;27;20044;-64
2022/10/22 07:33:33;;;;;;;12.40;7.68;;;14.40;99.90;;;;;;5113217;28;20042;-64
2022/10/22 07:36:02;;;;;;;7.93;5.72;;;14.90;99.90;;;;;;5123130;27;20043;-64
2022/10/22 07:38:28;;;;;;;10.48;6.10;;;15.00;99.90;;;;;;5125547;27;20398;-64
2022/10/22 07:40:54;;;;;;;10.70;6.32;;;14.90;99.90;;;;;;5126274;27;20035;-64
2022/10/22 07:43:20;;;;;;;10.43;5.53;;;14.90;99.90;;;;;;5122497;27;20600;-65
2022/10/22 07:45:46;;;;;;;14.02;5.90;;;15.10;99.90;;;;;;5123580;27;20043;-64
2022/10/22 07:48:12;;;;;;;15.68;5.68;;;15.20;99.90;;;;;;5120363;27;20043;-64
2022/10/22 07:50:37;;;;;;;12.73;5.65;;;15.20;99.90;;;;;;5126509;27;20050;-63
2022/10/22 07:53:03;;;;;;;11.80;5.40;;;15.00;99.90;;;;;;5126492;27;20047;-64
2022/10/22 07:55:29;;;;;;;13.35;5.82;;;14.90;99.90;;;;;;5125313;27;20036;-64
2022/10/22 07:57:54;;;;;;;12.43;5.30;;;14.70;99.90;;;;;;5124541;27;20039;-64
2022/10/22 08:00:20;;;;;;;12.52;5.57;;;14.70;99.90;;;;;;5117604;27;20086;-64
2022/10/22 08:02:46;;;;;;;12.88;5.35;;;15.10;99.90;;;;;;5120266;27;20474;-63
2022/10/22 08:05:15;;;;;;;9.98;4.90;;;15.70;99.90;;;;;;5124406;27;20180;-65
2022/10/22 08:07:41;;;;;;;10.18;5.10;;;16.10;99.90;;;;;;5122832;27;20039;-64
2022/10/22 08:10:08;;;;;;;11.63;4.80;;;16.70;99.90;;;;;;5124065;27;20562;-64
2022/10/22 08:12:34;;;;;;;7.70;4.53;;;17.10;99.90;;;;;;5122521;27;20043;-64
2022/10/22 08:14:59;;;;;;;11.50;5.57;;;17.00;99.90;;;;;;5120517;27;20276;-64
2022/10/22 08:17:26;;;;;;;12.85;4.60;;;17.10;99.90;;;;;;5125345;27;20047;-65
2022/10/22 08:19:51;;;;;;;10.10;4.07;;;17.30;99.90;;;;;;5122689;27;20106;-64
2022/10/22 08:22:17;;;;;;;12.30;5.07;;;17.60;99.90;;;;;;5129688;27;20188;-65
2022/10/22 08:24:42;;;;;;;8.80;4.55;;;18.10;99.90;;;;;;5125768;27;20039;-64
2022/10/22 08:27:08;;;;;;;10.80;4.05;;;19.00;99.90;;;;;;5123360;27;20169;-64
2022/10/22 08:29:34;;;;;;;10.82;3.95;;;19.70;99.90;;;;;;5126022;27;20054;-63
2022/10/22 08:32:01;;;;;;;14.07;4.07;;;20.30;99.90;;;;;;5130293;27;20146;-63
2022/10/22 08:34:28;;;;;;;10.88;4.00;;;20.90;99.90;;;;;;5126520;27;20451;-65
2022/10/22 08:36:53;;;;;;;11.13;3.53;;;21.10;99.90;;;;;;5126924;27;20054;-65
2022/10/22 08:39:19;;;;;;;10.77;3.90;;;21.30;99.90;;;;;;5128390;27;20035;-64
2022/10/22 08:42:17;;;;;;;7.10;3.08;;;21.50;99.90;;;;;;5122304;27;20039;-65
2022/10/22 08:44:57;;;;;;;11.82;3.20;;;21.90;99.90;;;;;;5079666;27;20044;-65
2022/10/22 08:47:58;;;;;;;7.70;3.03;;;22.50;99.90;;;;;;5115692;27;20039;-66
2022/10/22 08:50:40;;;;;;;8.30;3.25;;;22.70;99.90;;;;;;5118690;27;20073;-65
2022/10/22 08:53:12;;;;;;;6.88;2.90;;;23.00;99.90;;;;;;5123488;27;20050;-64
2022/10/22 08:55:39;;;;;;;9.32;3.30;;;23.10;99.90;;;;;;5123266;27;20055;-66
2022/10/22 08:58:30;;;;;;;7.78;2.95;;;23.30;99.90;;;;;;5124904;27;20028;-65
2022/10/22 09:01:11;;;;;;;8.77;2.80;;;23.50;99.90;;;;;;5122479;27;20042;-65
2022/10/22 09:03:44;;;;;;;9.52;2.80;;;23.20;99.90;;;;;;5122759;27;20035;-65
2022/10/22 09:06:15;;;;;;;9.97;2.37;;;23.10;99.90;;;;;;5122596;27;20119;-65
2022/10/22 09:08:42;;;;;;;9.18;2.75;;;23.40;99.90;;;;;;5124638;27;20035;-65
2022/10/22 09:11:17;;;;;;;9.93;2.67;;;23.70;99.90;;;;;;5121773;27;20036;-65
2022/10/22 09:13:44;;;;;;;7.63;2.40;;;23.60;99.90;;;;;;5120823;27;20130;-65
2022/10/22 09:16:18;;;;;;;9.63;2.72;;;22.80;99.90;;;;;;5119962;27;20058;-65
2022/10/22 09:19:36;;;;;;;8.98;2.47;;;21.90;99.90;;;;;;5120833;27;20390;-65
2022/10/22 09:22:09;;;;;;;8.52;2.47;;;21.00;99.90;;;;;;5116281;27;20083;-65
2022/10/22 09:24:47;;;;;;;9.52;3.00;;;20.20;99.90;;;;;;5125024;27;20046;-65
2022/10/22 09:27:19;;;;;;;11.48;3.08;;;19.60;99.90;;;;;;5118231;27;20132;-65
2022/10/22 09:29:46;;;;;;;9.30;2.60;;;19.20;99.90;;;;;;5127986;27;20039;-65
2022/10/22 09:32:13;;;;;;;12.30;2.78;;;18.90;99.90;;;;;;5121468;27;20104;-65
2022/10/22 09:34:39;;;;;;;12.45;2.90;;;18.50;99.90;;;;;;5122509;27;20031;-65
2022/10/22 09:37:09;;;;;;;11.52;2.88;;;18.30;99.90;;;;;;5115795;27;20430;-65
2022/10/22 09:39:42;;;;;;;11.70;2.90;;;18.10;99.90;;;;;;5126248;27;20119;-65
2022/10/22 09:42:12;;;;;;;10.60;2.60;;;17.90;99.90;;;;;;5124965;27;20066;-65
2022/10/22 09:44:38;;;;;;;13.05;3.03;;;17.70;99.90;;;;;;5119302;27;20285;-65
2022/10/22 09:47:44;;;;;;;9.77;2.75;;;17.50;99.90;;;;;;5116454;27;20483;-65
2022/10/22 09:50:37;;;;;;;7.65;2.58;;;17.40;99.90;;;;;;5125912;27;20027;-64
2022/10/22 09:53:25;;;;;;;11.80;2.78;;;17.20;99.90;;;;;;5121399;27;20048;-65
2022/10/22 09:55:54;;;;;;;11.63;3.15;;;17.00;99.90;;;;;;5124722;27;20031;-65
2022/10/22 09:58:20;;;;;;;11.82;2.95;;;16.90;99.90;;;;;;5121336;27;20027;-65
2022/10/22 10:00:54;;;;;;;12.05;3.20;;;16.80;99.90;;;;;;5126669;27;20042;-65
2022/10/22 10:03:23;;;;;;;14.20;3.13;;;16.80;99.90;;;;;;5119956;27;20061;-65
2022/10/22 10:05:53;;;;;;;8.25;3.20;;;16.70;99.90;;;;;;5125127;27;20126;-66
2022/10/22 10:08:19;;;;;;;12.40;3.40;;;16.70;99.90;;;;;;5119716;27;20090;-65
2022/10/22 10:10:49;;;;;;;11.75;3.55;;;16.70;99.90;;;;;;5122690;27;20039;-64
2022/10/22 10:13:33;;;;;;;14.02;3.53;;;16.70;99.90;;;;;;5118440;27;20442;-65
2022/10/22 10:16:12;;;;;;;12.32;3.50;;;16.70;99.90;;;;;;5123578;27;20451;-65
2022/10/22 10:18:46;;;;;;;7.97;3.00;;;16.70;99.90;;;;;;5121184;27;20138;-65
2022/10/22 10:21:49;;;;;;;10.50;3.10;;;16.70;99.90;;;;;;5120903;27;20040;-65
2022/10/22 10:24:52;;;;;;;9.40;2.97;;;16.70;99.90;;;;;;5075514;27;20475;-64
2022/10/22 10:27:26;;;;;;;11.48;3.28;;;16.80;99.90;;;;;;5121573;27;20042;-65
2022/10/22 10:30:19;;;;;;;12.00;3.10;;;17.10;99.90;;;;;;5121616;27;20031;-64
2022/10/22 10:33:14;;;;;;;7.80;3.05;;;17.30;99.90;;;;;;5121787;27;20047;-65
2022/10/22 10:36:01;;;;;;;6.93;2.85;;;17.70;99.90;;;;;;5115151;27;20043;-65
2022/10/22 10:38:58;;;;;;;8.85;3.13;;;17.80;99.90;;;;;;5117590;27;20046;-65
2022/10/22 10:41:38;;;;;;;12.32;3.42;;;17.70;99.90;;;;;;5116834;27;20050;-65
2022/10/22 10:44:16;;;;;;;12.95;3.35;;;17.50;99.90;;;;;;5122775;27;20043;-65
2022/10/22 10:46:59;;;;;;;9.52;3.03;;;17.40;99.90;;;;;;5120184;27;20061;-65
2022/10/22 10:49:28;;;;;;;10.82;3.38;;;17.20;99.90;;;;;;5120038;27;20092;-66
2022/10/22 10:52:19;;;;;;;14.07;3.53;;;17.10;99.90;;;;;;5113934;27;20043;-64
2022/10/22 10:55:07;;;;;;;13.40;3.85;;;17.00;99.90;;;;;;5122820;27;20051;-64
2022/10/22 10:57:50;;;;;;;12.30;4.10;;;16.90;99.90;;;;;;5125180;27;20042;-65
2022/10/22 11:00:21;;;;;;;9.38;3.55;;;16.80;99.90;;;;;;5125234;27;20039;-65
2022/10/22 11:02:52;;;;;;;11.90;4.30;;;16.70;99.90;;;;;;5115281;27;20543;-65
2022/10/22 11:05:26;;;;;;;13.25;5.00;;;16.60;99.90;;;;;;5116878;27;20063;-65
2022/10/22 11:08:13;;;;;;;12.20;4.80;;;16.60;99.90;;;;;;5121475;27;20043;-65
2022/10/22 11:10:41;;;;;;;12.93;5.32;;;16.50;99.90;;;;;;5116019;27;20052;-65
2022/10/22 11:13:30;;;;;;;13.20;5.25;;;16.50;99.90;;;;;;5116152;28;20027;-65
2022/10/22 11:16:18;;;;;;;11.35;4.97;;;16.40;99.90;;;;;;5123901;27;20055;-65
2022/10/22 11:18:46;;;;;;;13.75;4.45;;;16.40;99.90;;;;;;5122739;28;20050;-65
2022/10/22 11:21:21;;;;;;;11.00;4.93;;;16.30;99.90;;;;;;5114061;28;20039;-66
2022/10/22 11:24:02;;;;;;;12.85;4.95;;;16.40;99.90;;;;;;5119221;28;20043;-65
2022/10/22 11:26:40;;;;;;;14.85;5.45;;;16.40;99.90;;;;;;5119970;28;20042;-65
2022/10/22 11:29:14;;;;;;;9.57;4.65;;;16.40;99.90;;;;;;5122585;28;20041;-65
2022/10/22 11:31:40;;;;;;;13.07;4.70;;;16.50;99.90;;;;;;5115264;27;20292;-65
2022/10/22 11:34:25;;;;;;;11.60;4.97;;;16.40;99.90;;;;;;5117042;28;20458;-65
2022/10/22 11:36:52;;;;;;;11.18;4.38;;;16.50;99.90;;;;;;5121558;28;20111;-66
2022/10/22 11:39:42;;;;;;;12.27;4.47;;;16.50;99.90;;;;;;5119701;27;20378;-65
2022/10/22 11:42:22;;;;;;;12.23;4.30;;;16.60;99.90;;;;;;5118496;28;20035;-65
2022/10/22 11:45:06;;;;;;;14.30;4.43;;;16.80;99.90;;;;;;5120214;28;20039;-65
2022/10/22 11:47:40;;;;;;;12.30;4.28;;;17.40;99.90;;;;;;5119358;28;20084;-65
2022/10/22 11:50:16;;;;;;;;;;;17.50;99.90;;;;;;5121147;28;20039;-65
2022/10/22 11:53:04;;;;;;;10.73;4.00;;;17.60;99.90;;;;;;5117782;27;19956;-65
2022/10/22 11:55:54;;;;;;;12.35;3.88;;;17.50;99.90;;;;;;5125198;28;20387;-65
2022/10/22 11:58:41;;;;;;;7.78;3.25;;;17.50;99.90;;;;;;5121413;28;20035;-65
2022/10/22 12:01:07;;;;;;;12.38;3.45;;;17.40;99.90;;;;;;5118278;28;20068;-65
2022/10/22 12:03:33;;;;;;;11.45;3.50;;;17.40;99.90;;;;;;5115951;28;20042;-65
2022/10/22 12:06:20;;;;;;;11.98;3.83;;;17.40;99.90;;;;;;5119801;28;20048;-64
2022/10/22 12:08:52;;;;;;;9.50;3.05;;;17.40;99.90;;;;;;5118829;28;20039;-65
2022/10/22 12:11:29;;;;;;;10.65;3.00;;;17.40;99.90;;;;;;5114114;28;20475;-65
2022/10/22 12:14:14;;;;;;;8.90;2.85;;;17.30;99.90;;;;;;5119131;28;20140;-64
2022/10/22 12:16:44;;;;;;;14.60;3.53;;;17.30;99.90;;;;;;5118491;28;20514;-63
2022/10/22 12:19:10;;;;;;;9.95;3.10;;;17.20;99.90;;;;;;5121426;28;20498;-64
2022/10/22 12:21:38;;;;;;;10.98;4.20;;;17.10;99.90;;;;;;5123988;28;20070;-64
2022/10/22 12:24:06;;;;;;;9.32;3.05;;;17.10;99.90;;;;;;5123603;27;20035;-64
2022/10/22 12:26:34;;;;;;;11.05;3.47;;;17.00;99.90;;;;;;5123819;27;20036;-64
2022/10/22 12:29:05;;;;;;;12.13;3.70;;;16.90;99.90;;;;;;5127025;27;20039;-64
2022/10/22 12:31:36;;;;;;;11.02;3.53;;;16.80;99.90;;;;;;5125734;27;20050;-64
2022/10/22 12:34:02;;;;;;;9.73;3.80;;;16.80;99.90;;;;;;5124414;27;20479;-64
2022/10/22 12:36:30;;;;;;;13.45;3.42;;;16.70;99.90;;;;;;5122932;27;20245;-64
2022/10/22 12:39:09;;;;;;;12.32;3.92;;;16.60;99.90;;;;;;5124071;27;20058;-65
2022/10/22 12:41:38;;;;;;;11.57;3.78;;;16.60;99.90;;;;;;5125376;27;20039;-65
2022/10/22 12:44:04;;;;;;;10.43;3.75;;;16.60;99.90;;;;;;5119718;27;20193;-65
2022/10/22 12:46:33;;;;;;;11.18;3.90;;;16.60;99.90;;;;;;5125234;27;20046;-64
2022/10/22 12:49:01;;;;;;;12.57;3.30;;;16.60;99.90;;;;;;5119105;27;20136;-64
2022/10/22 12:51:27;;;;;;;12.80;4.15;;;16.60;99.90;;;;;;5121173;27;20394;-65
2022/10/22 12:54:06;;;;;;;12.55;4.68;;;16.50;99.90;;;;;;5120322;27;20040;-64
2022/10/22 12:56:33;;;;;;;10.68;4.03;;;16.40;99.90;;;;;;5122707;27;20089;-65